sensor_id;sensor_type;location;lat;lon;timestamp;P1;durP1;ratioP1;P2;durP2;ratioP2
67442;SDS011;54311;51.726;5.154;2022-11-20T00:01:39;21.52;;;19.23;;
67442;SDS011;54311;51.726;5.154;2022-11-20T00:04:05;25.25;;;18.88;;
67442;SDS011;54311;51.726;5.154;2022-11-20T00:06:31;23.42;;;20.10;;
67442;SDS011;54311;51.726;5.154;2022-11-20T00:08:57;23.38;;;19.23;;
67442;SDS011;54311;51.726;5.154;2022-11-20T00:11:25;22.65;;;19.35;;
67442;SDS011;54311;51.726;5.154;2022-11-20T00:13:52;29.83;;;20.60;;
67442;SDS011;54311;51.726;5.154;2022-11-20T00:16:21;21.58;;;19.30;;
67442;SDS011;54311;51.726;5.154;2022-11-20T00:18:47;24.00;;;20.25;;
67442;SDS011;54311;51.726;5.154;2022-11-20T00:21:16;28.02;;;22.30;;
67442;SDS011;54311;51.726;5.154;2022-11-20T00:23:43;33.83;;;20.70;;
67442;SDS011;54311;51.726;5.154;2022-11-20T00:26:09;21.85;;;18.95;;
67442;SDS011;54311;51.726;5.154;2022-11-20T00:28:37;25.60;;;20.75;;
67442;SDS011;54311;51.726;5.154;2022-11-20T00:31:06;24.42;;;20.20;;
67442;SDS011;54311;51.726;5.154;2022-11-20T00:33:33;23.20;;;19.08;;
67442;SDS011;54311;51.726;5.154;2022-11-20T00:36:09;28.60;;;19.83;;
67442;SDS011;54311;51.726;5.154;2022-11-20T00:38:45;26.40;;;19.83;;
67442;SDS011;54311;51.726;5.154;2022-11-20T00:41:14;24.27;;;20.23;;
67442;SDS011;54311;51.726;5.154;2022-11-20T00:43:40;24.05;;;20.45;;
67442;SDS011;54311;51.726;5.154;2022-11-20T00:46:07;22.90;;;20.15;;
67442;SDS011;54311;51.726;5.154;2022-11-20T00:48:34;24.42;;;19.67;;
67442;SDS011;54311;51.726;5.154;2022-11-20T00:50:59;23.10;;;19.65;;
67442;SDS011;54311;51.726;5.154;2022-11-20T00:53:25;23.65;;;20.27;;
67442;SDS011;54311;51.726;5.154;2022-11-20T00:58:24;20.90;;;18.70;;
67442;SDS011;54311;51.726;5.154;2022-11-20T01:00:50;26.23;;;19.30;;
67442;SDS011;54311;51.726;5.154;2022-11-20T01:03:16;21.48;;;18.15;;
67442;SDS011;54311;51.726;5.154;2022-11-20T01:05:42;21.85;;;19.40;;
67442;SDS011;54311;51.726;5.154;2022-11-20T01:08:08;24.45;;;19.23;;
67442;SDS011;54311;51.726;5.154;2022-11-20T01:10:33;21.23;;;19.02;;
67442;SDS011;54311;51.726;5.154;2022-11-20T01:12:58;22.58;;;19.15;;
67442;SDS011;54311;51.726;5.154;2022-11-20T01:15:42;23.50;;;19.08;;
67442;SDS011;54311;51.726;5.154;2022-11-20T01:18:08;23.83;;;19.40;;
67442;SDS011;54311;51.726;5.154;2022-11-20T01:20:36;21.65;;;19.35;;
67442;SDS011;54311;51.726;5.154;2022-11-20T01:23:04;23.98;;;19.35;;
67442;SDS011;54311;51.726;5.154;2022-11-20T01:25:30;24.52;;;20.92;;
67442;SDS011;54311;51.726;5.154;2022-11-20T01:27:56;21.92;;;19.05;;
67442;SDS011;54311;51.726;5.154;2022-11-20T01:30:22;24.50;;;20.67;;
67442;SDS011;54311;51.726;5.154;2022-11-20T01:32:47;23.55;;;20.77;;
67442;SDS011;54311;51.726;5.154;2022-11-20T01:35:12;27.13;;;20.20;;
67442;SDS011;54311;51.726;5.154;2022-11-20T01:37:38;22.08;;;19.70;;
67442;SDS011;54311;51.726;5.154;2022-11-20T01:40:03;25.33;;;19.15;;
67442;SDS011;54311;51.726;5.154;2022-11-20T01:42:29;24.58;;;20.40;;
67442;SDS011;54311;51.726;5.154;2022-11-20T01:48:14;22.67;;;18.95;;
67442;SDS011;54311;51.726;5.154;2022-11-20T01:50:39;23.70;;;18.92;;
67442;SDS011;54311;51.726;5.154;2022-11-20T01:53:06;24.02;;;20.23;;
67442;SDS011;54311;51.726;5.154;2022-11-20T01:55:39;24.08;;;18.48;;
67442;SDS011;54311;51.726;5.154;2022-11-20T01:58:06;22.45;;;20.08;;
67442;SDS011;54311;51.726;5.154;2022-11-20T02:00:32;21.58;;;19.35;;
67442;SDS011;54311;51.726;5.154;2022-11-20T02:02:58;23.65;;;19.48;;
67442;SDS011;54311;51.726;5.154;2022-11-20T02:05:49;23.73;;;20.52;;
67442;SDS011;54311;51.726;5.154;2022-11-20T02:08:15;24.23;;;19.30;;
67442;SDS011;54311;51.726;5.154;2022-11-20T02:10:42;23.80;;;21.25;;
67442;SDS011;54311;51.726;5.154;2022-11-20T02:13:07;24.80;;;20.67;;
67442;SDS011;54311;51.726;5.154;2022-11-20T02:15:51;25.70;;;20.85;;
67442;SDS011;54311;51.726;5.154;2022-11-20T02:18:18;23.67;;;20.88;;
67442;SDS011;54311;51.726;5.154;2022-11-20T02:20:49;26.52;;;22.77;;
67442;SDS011;54311;51.726;5.154;2022-11-20T02:25:41;23.75;;;21.20;;
67442;SDS011;54311;51.726;5.154;2022-11-20T02:28:08;23.25;;;20.75;;
67442;SDS011;54311;51.726;5.154;2022-11-20T02:30:33;26.38;;;22.10;;
67442;SDS011;54311;51.726;5.154;2022-11-20T02:32:58;25.02;;;22.38;;
67442;SDS011;54311;51.726;5.154;2022-11-20T02:37:51;27.02;;;21.98;;
67442;SDS011;54311;51.726;5.154;2022-11-20T02:40:18;23.25;;;20.75;;
67442;SDS011;54311;51.726;5.154;2022-11-20T02:42:44;24.67;;;22.13;;
67442;SDS011;54311;51.726;5.154;2022-11-20T02:45:09;24.17;;;21.60;;
67442;SDS011;54311;51.726;5.154;2022-11-20T02:47:35;23.55;;;20.55;;
67442;SDS011;54311;51.726;5.154;2022-11-20T02:50:01;23.13;;;20.52;;
67442;SDS011;54311;51.726;5.154;2022-11-20T02:52:26;23.45;;;20.73;;
67442;SDS011;54311;51.726;5.154;2022-11-20T02:54:51;28.30;;;20.90;;
67442;SDS011;54311;51.726;5.154;2022-11-20T02:57:17;21.63;;;19.00;;
67442;SDS011;54311;51.726;5.154;2022-11-20T02:59:43;28.65;;;19.90;;
67442;SDS011;54311;51.726;5.154;2022-11-20T03:02:08;22.65;;;19.92;;
67442;SDS011;54311;51.726;5.154;2022-11-20T03:04:33;24.60;;;20.42;;
67442;SDS011;54311;51.726;5.154;2022-11-20T03:06:59;24.35;;;20.83;;
67442;SDS011;54311;51.726;5.154;2022-11-20T03:09:24;26.90;;;23.05;;
67442;SDS011;54311;51.726;5.154;2022-11-20T03:11:49;25.95;;;22.75;;
67442;SDS011;54311;51.726;5.154;2022-11-20T03:14:15;31.10;;;23.42;;
67442;SDS011;54311;51.726;5.154;2022-11-20T03:16:40;28.10;;;22.80;;
67442;SDS011;54311;51.726;5.154;2022-11-20T03:19:06;28.90;;;23.42;;
67442;SDS011;54311;51.726;5.154;2022-11-20T03:21:35;32.58;;;24.50;;
67442;SDS011;54311;51.726;5.154;2022-11-20T03:24:01;30.67;;;23.38;;
67442;SDS011;54311;51.726;5.154;2022-11-20T03:26:26;27.45;;;23.27;;
67442;SDS011;54311;51.726;5.154;2022-11-20T03:28:53;30.60;;;23.25;;
67442;SDS011;54311;51.726;5.154;2022-11-20T03:31:21;25.30;;;21.77;;
67442;SDS011;54311;51.726;5.154;2022-11-20T03:33:48;25.27;;;22.60;;
67442;SDS011;54311;51.726;5.154;2022-11-20T03:36:13;28.05;;;22.77;;
67442;SDS011;54311;51.726;5.154;2022-11-20T03:38:40;26.33;;;22.42;;
67442;SDS011;54311;51.726;5.154;2022-11-20T03:41:08;25.45;;;22.02;;
67442;SDS011;54311;51.726;5.154;2022-11-20T03:43:35;25.58;;;21.40;;
67442;SDS011;54311;51.726;5.154;2022-11-20T03:46:00;25.48;;;20.77;;
67442;SDS011;54311;51.726;5.154;2022-11-20T03:48:26;22.80;;;20.02;;
67442;SDS011;54311;51.726;5.154;2022-11-20T03:50:53;25.83;;;21.30;;
67442;SDS011;54311;51.726;5.154;2022-11-20T03:53:19;22.63;;;20.25;;
67442;SDS011;54311;51.726;5.154;2022-11-20T03:55:44;22.70;;;19.33;;
67442;SDS011;54311;51.726;5.154;2022-11-20T03:58:10;25.15;;;20.77;;
67442;SDS011;54311;51.726;5.154;2022-11-20T04:00:35;23.23;;;20.73;;
67442;SDS011;54311;51.726;5.154;2022-11-20T04:03:01;23.15;;;20.77;;
67442;SDS011;54311;51.726;5.154;2022-11-20T04:05:27;23.20;;;20.48;;
67442;SDS011;54311;51.726;5.154;2022-11-20T04:07:52;25.48;;;21.55;;
67442;SDS011;54311;51.726;5.154;2022-11-20T04:10:18;24.00;;;21.48;;
67442;SDS011;54311;51.726;5.154;2022-11-20T04:12:43;23.33;;;20.83;;
67442;SDS011;54311;51.726;5.154;2022-11-20T04:15:09;24.00;;;20.23;;
67442;SDS011;54311;51.726;5.154;2022-11-20T04:17:34;25.83;;;21.02;;
67442;SDS011;54311;51.726;5.154;2022-11-20T04:20:00;22.25;;;19.45;;
67442;SDS011;54311;51.726;5.154;2022-11-20T04:22:25;23.67;;;20.55;;
67442;SDS011;54311;51.726;5.154;2022-11-20T04:24:51;22.92;;;20.52;;
67442;SDS011;54311;51.726;5.154;2022-11-20T04:27:16;24.00;;;20.05;;
67442;SDS011;54311;51.726;5.154;2022-11-20T04:29:41;22.73;;;19.55;;
67442;SDS011;54311;51.726;5.154;2022-11-20T04:32:07;26.02;;;20.50;;
67442;SDS011;54311;51.726;5.154;2022-11-20T04:34:32;23.40;;;20.90;;
67442;SDS011;54311;51.726;5.154;2022-11-20T04:36:58;23.15;;;19.45;;
67442;SDS011;54311;51.726;5.154;2022-11-20T04:39:23;21.67;;;19.27;;
67442;SDS011;54311;51.726;5.154;2022-11-20T04:41:48;25.10;;;20.38;;
67442;SDS011;54311;51.726;5.154;2022-11-20T04:44:33;23.17;;;19.65;;
67442;SDS011;54311;51.726;5.154;2022-11-20T04:46:59;23.27;;;19.48;;
67442;SDS011;54311;51.726;5.154;2022-11-20T04:49:24;21.83;;;19.50;;
67442;SDS011;54311;51.726;5.154;2022-11-20T04:51:52;25.30;;;20.48;;
67442;SDS011;54311;51.726;5.154;2022-11-20T04:54:18;25.52;;;20.92;;
67442;SDS011;54311;51.726;5.154;2022-11-20T04:56:46;22.80;;;19.05;;
67442;SDS011;54311;51.726;5.154;2022-11-20T04:59:12;25.58;;;19.90;;
67442;SDS011;54311;51.726;5.154;2022-11-20T05:01:38;25.00;;;20.38;;
67442;SDS011;54311;51.726;5.154;2022-11-20T05:04:03;22.88;;;19.45;;
67442;SDS011;54311;51.726;5.154;2022-11-20T05:06:28;22.58;;;20.08;;
67442;SDS011;54311;51.726;5.154;2022-11-20T05:08:54;23.17;;;19.92;;
67442;SDS011;54311;51.726;5.154;2022-11-20T05:11:20;22.45;;;20.08;;
67442;SDS011;54311;51.726;5.154;2022-11-20T05:13:46;22.95;;;19.75;;
67442;SDS011;54311;51.726;5.154;2022-11-20T05:16:18;23.65;;;20.33;;
67442;SDS011;54311;51.726;5.154;2022-11-20T05:18:45;23.00;;;19.75;;
67442;SDS011;54311;51.726;5.154;2022-11-20T05:21:11;22.02;;;19.75;;
67442;SDS011;54311;51.726;5.154;2022-11-20T05:23:37;27.58;;;20.20;;
67442;SDS011;54311;51.726;5.154;2022-11-20T05:26:03;24.42;;;19.02;;
67442;SDS011;54311;51.726;5.154;2022-11-20T05:28:30;20.58;;;18.38;;
67442;SDS011;54311;51.726;5.154;2022-11-20T05:31:03;22.08;;;19.45;;
67442;SDS011;54311;51.726;5.154;2022-11-20T05:33:32;21.95;;;19.65;;
67442;SDS011;54311;51.726;5.154;2022-11-20T05:35:59;22.77;;;19.13;;
67442;SDS011;54311;51.726;5.154;2022-11-20T05:38:24;21.20;;;19.00;;
67442;SDS011;54311;51.726;5.154;2022-11-20T05:40:49;22.70;;;18.30;;
67442;SDS011;54311;51.726;5.154;2022-11-20T05:43:15;21.40;;;18.63;;
67442;SDS011;54311;51.726;5.154;2022-11-20T05:45:40;26.23;;;19.70;;
67442;SDS011;54311;51.726;5.154;2022-11-20T05:48:06;22.38;;;19.48;;
67442;SDS011;54311;51.726;5.154;2022-11-20T05:50:31;21.08;;;18.50;;
67442;SDS011;54311;51.726;5.154;2022-11-20T05:52:59;22.45;;;18.13;;
67442;SDS011;54311;51.726;5.154;2022-11-20T05:55:25;23.13;;;18.95;;
67442;SDS011;54311;51.726;5.154;2022-11-20T05:57:54;22.13;;;19.13;;
67442;SDS011;54311;51.726;5.154;2022-11-20T06:00:20;23.77;;;19.48;;
67442;SDS011;54311;51.726;5.154;2022-11-20T06:02:45;25.45;;;19.42;;
67442;SDS011;54311;51.726;5.154;2022-11-20T06:05:11;23.27;;;17.50;;
67442;SDS011;54311;51.726;5.154;2022-11-20T06:07:36;20.23;;;17.90;;
67442;SDS011;54311;51.726;5.154;2022-11-20T06:10:02;21.50;;;19.20;;
67442;SDS011;54311;51.726;5.154;2022-11-20T06:12:27;21.77;;;19.42;;
67442;SDS011;54311;51.726;5.154;2022-11-20T06:14:53;23.95;;;19.33;;
67442;SDS011;54311;51.726;5.154;2022-11-20T06:17:18;23.48;;;19.17;;
67442;SDS011;54311;51.726;5.154;2022-11-20T06:19:43;25.08;;;20.02;;
67442;SDS011;54311;51.726;5.154;2022-11-20T06:22:09;23.20;;;19.23;;
67442;SDS011;54311;51.726;5.154;2022-11-20T06:24:34;22.60;;;19.55;;
67442;SDS011;54311;51.726;5.154;2022-11-20T06:26:59;24.08;;;17.98;;
67442;SDS011;54311;51.726;5.154;2022-11-20T06:29:25;23.67;;;18.77;;
67442;SDS011;54311;51.726;5.154;2022-11-20T06:31:50;20.58;;;18.38;;
67442;SDS011;54311;51.726;5.154;2022-11-20T06:34:15;21.48;;;18.58;;
67442;SDS011;54311;51.726;5.154;2022-11-20T06:36:41;22.10;;;19.40;;
67442;SDS011;54311;51.726;5.154;2022-11-20T06:39:06;21.55;;;19.25;;
67442;SDS011;54311;51.726;5.154;2022-11-20T06:41:31;20.98;;;18.13;;
67442;SDS011;54311;51.726;5.154;2022-11-20T06:43:57;24.05;;;19.63;;
67442;SDS011;54311;51.726;5.154;2022-11-20T06:46:22;25.45;;;20.60;;
67442;SDS011;54311;51.726;5.154;2022-11-20T06:48:49;28.33;;;21.33;;
67442;SDS011;54311;51.726;5.154;2022-11-20T06:51:15;22.48;;;20.10;;
67442;SDS011;54311;51.726;5.154;2022-11-20T06:53:41;26.38;;;21.50;;
67442;SDS011;54311;51.726;5.154;2022-11-20T06:56:06;24.35;;;20.73;;
67442;SDS011;54311;51.726;5.154;2022-11-20T06:58:33;25.15;;;21.98;;
67442;SDS011;54311;51.726;5.154;2022-11-20T07:01:09;28.45;;;22.20;;
67442;SDS011;54311;51.726;5.154;2022-11-20T07:03:36;26.48;;;22.63;;
67442;SDS011;54311;51.726;5.154;2022-11-20T07:06:02;25.05;;;21.73;;
67442;SDS011;54311;51.726;5.154;2022-11-20T07:08:28;25.70;;;21.38;;
67442;SDS011;54311;51.726;5.154;2022-11-20T07:10:56;26.55;;;21.10;;
67442;SDS011;54311;51.726;5.154;2022-11-20T07:13:25;23.17;;;20.50;;
67442;SDS011;54311;51.726;5.154;2022-11-20T07:15:51;26.55;;;20.90;;
67442;SDS011;54311;51.726;5.154;2022-11-20T07:18:18;25.25;;;21.73;;
67442;SDS011;54311;51.726;5.154;2022-11-20T07:20:43;27.48;;;22.70;;
67442;SDS011;54311;51.726;5.154;2022-11-20T07:23:09;26.67;;;22.77;;
67442;SDS011;54311;51.726;5.154;2022-11-20T07:25:34;27.67;;;21.75;;
67442;SDS011;54311;51.726;5.154;2022-11-20T07:27:59;30.80;;;22.80;;
67442;SDS011;54311;51.726;5.154;2022-11-20T07:30:28;28.67;;;21.85;;
67442;SDS011;54311;51.726;5.154;2022-11-20T07:32:54;30.48;;;21.55;;
67442;SDS011;54311;51.726;5.154;2022-11-20T07:35:21;33.38;;;24.00;;
67442;SDS011;54311;51.726;5.154;2022-11-20T07:37:46;41.10;;;27.60;;
67442;SDS011;54311;51.726;5.154;2022-11-20T07:40:13;30.52;;;23.83;;
67442;SDS011;54311;51.726;5.154;2022-11-20T07:42:41;31.20;;;22.00;;
67442;SDS011;54311;51.726;5.154;2022-11-20T07:45:12;33.20;;;25.70;;
67442;SDS011;54311;51.726;5.154;2022-11-20T07:47:38;32.88;;;27.27;;
67442;SDS011;54311;51.726;5.154;2022-11-20T07:50:03;34.13;;;27.52;;
67442;SDS011;54311;51.726;5.154;2022-11-20T07:52:29;40.60;;;30.80;;
67442;SDS011;54311;51.726;5.154;2022-11-20T07:54:54;31.05;;;24.95;;
67442;SDS011;54311;51.726;5.154;2022-11-20T07:57:19;48.40;;;36.28;;
67442;SDS011;54311;51.726;5.154;2022-11-20T07:59:45;42.78;;;33.90;;
67442;SDS011;54311;51.726;5.154;2022-11-20T08:02:11;28.92;;;25.08;;
67442;SDS011;54311;51.726;5.154;2022-11-20T08:04:36;35.95;;;25.70;;
67442;SDS011;54311;51.726;5.154;2022-11-20T08:07:02;33.70;;;27.60;;
67442;SDS011;54311;51.726;5.154;2022-11-20T08:09:27;36.83;;;27.23;;
67442;SDS011;54311;51.726;5.154;2022-11-20T08:11:54;32.50;;;26.67;;
67442;SDS011;54311;51.726;5.154;2022-11-20T08:14:38;31.75;;;24.70;;
67442;SDS011;54311;51.726;5.154;2022-11-20T08:17:04;27.55;;;24.20;;
67442;SDS011;54311;51.726;5.154;2022-11-20T08:19:29;33.03;;;25.58;;
67442;SDS011;54311;51.726;5.154;2022-11-20T08:21:54;34.55;;;29.38;;
67442;SDS011;54311;51.726;5.154;2022-11-20T08:24:20;59.95;;;45.65;;
67442;SDS011;54311;51.726;5.154;2022-11-20T08:26:45;42.47;;;34.15;;
67442;SDS011;54311;51.726;5.154;2022-11-20T08:29:11;44.13;;;34.03;;
67442;SDS011;54311;51.726;5.154;2022-11-20T08:31:36;39.95;;;32.90;;
67442;SDS011;54311;51.726;5.154;2022-11-20T08:34:02;41.90;;;34.67;;
67442;SDS011;54311;51.726;5.154;2022-11-20T08:36:27;36.40;;;29.27;;
67442;SDS011;54311;51.726;5.154;2022-11-20T08:38:53;33.13;;;27.20;;
67442;SDS011;54311;51.726;5.154;2022-11-20T08:41:20;34.28;;;28.80;;
67442;SDS011;54311;51.726;5.154;2022-11-20T08:43:54;31.52;;;27.13;;
67442;SDS011;54311;51.726;5.154;2022-11-20T08:46:21;37.92;;;28.23;;
67442;SDS011;54311;51.726;5.154;2022-11-20T08:48:48;33.38;;;27.67;;
67442;SDS011;54311;51.726;5.154;2022-11-20T08:51:13;36.47;;;27.42;;
67442;SDS011;54311;51.726;5.154;2022-11-20T08:53:39;34.28;;;28.90;;
67442;SDS011;54311;51.726;5.154;2022-11-20T08:56:05;37.47;;;29.92;;
67442;SDS011;54311;51.726;5.154;2022-11-20T08:58:31;31.83;;;26.50;;
67442;SDS011;54311;51.726;5.154;2022-11-20T09:00:56;31.77;;;26.52;;
67442;SDS011;54311;51.726;5.154;2022-11-20T09:03:22;32.38;;;26.30;;
67442;SDS011;54311;51.726;5.154;2022-11-20T09:05:47;31.55;;;27.50;;
67442;SDS011;54311;51.726;5.154;2022-11-20T09:08:13;35.55;;;26.92;;
67442;SDS011;54311;51.726;5.154;2022-11-20T09:10:38;34.15;;;27.33;;
67442;SDS011;54311;51.726;5.154;2022-11-20T09:13:09;35.05;;;28.13;;
67442;SDS011;54311;51.726;5.154;2022-11-20T09:15:34;31.42;;;26.23;;
67442;SDS011;54311;51.726;5.154;2022-11-20T09:18:02;41.83;;;32.67;;
67442;SDS011;54311;51.726;5.154;2022-11-20T09:20:29;34.83;;;29.45;;
67442;SDS011;54311;51.726;5.154;2022-11-20T09:22:55;33.97;;;28.63;;
67442;SDS011;54311;51.726;5.154;2022-11-20T09:25:21;35.85;;;27.88;;
67442;SDS011;54311;51.726;5.154;2022-11-20T09:27:47;36.03;;;27.88;;
67442;SDS011;54311;51.726;5.154;2022-11-20T09:30:13;36.35;;;28.33;;
67442;SDS011;54311;51.726;5.154;2022-11-20T09:32:39;33.88;;;28.02;;
67442;SDS011;54311;51.726;5.154;2022-11-20T09:35:05;35.92;;;28.08;;
67442;SDS011;54311;51.726;5.154;2022-11-20T09:37:30;39.58;;;30.23;;
67442;SDS011;54311;51.726;5.154;2022-11-20T09:39:55;41.97;;;33.67;;
67442;SDS011;54311;51.726;5.154;2022-11-20T09:48:28;38.60;;;29.40;;
67442;SDS011;54311;51.726;5.154;2022-11-20T09:51:05;43.05;;;30.23;;
67442;SDS011;54311;51.726;5.154;2022-11-20T09:56:00;42.97;;;29.85;;
67442;SDS011;54311;51.726;5.154;2022-11-20T09:58:42;44.47;;;30.15;;
67442;SDS011;54311;51.726;5.154;2022-11-20T10:01:16;38.35;;;29.27;;
67442;SDS011;54311;51.726;5.154;2022-11-20T10:03:56;44.07;;;33.83;;
67442;SDS011;54311;51.726;5.154;2022-11-20T10:06:33;49.30;;;31.33;;
67442;SDS011;54311;51.726;5.154;2022-11-20T10:14:16;40.05;;;30.70;;
67442;SDS011;54311;51.726;5.154;2022-11-20T10:25:19;46.28;;;34.50;;
67442;SDS011;54311;51.726;5.154;2022-11-20T10:30:14;43.17;;;32.97;;
67442;SDS011;54311;51.726;5.154;2022-11-20T10:32:42;44.10;;;32.40;;
67442;SDS011;54311;51.726;5.154;2022-11-20T10:38:00;44.55;;;31.13;;
67442;SDS011;54311;51.726;5.154;2022-11-20T10:43:40;44.75;;;33.75;;
67442;SDS011;54311;51.726;5.154;2022-11-20T10:46:11;48.33;;;34.70;;
67442;SDS011;54311;51.726;5.154;2022-11-20T10:48:39;46.47;;;34.35;;
67442;SDS011;54311;51.726;5.154;2022-11-20T10:51:13;52.25;;;34.22;;
67442;SDS011;54311;51.726;5.154;2022-11-20T10:54:03;50.17;;;33.60;;
67442;SDS011;54311;51.726;5.154;2022-11-20T10:56:47;50.55;;;32.60;;
67442;SDS011;54311;51.726;5.154;2022-11-20T11:01:43;53.40;;;35.78;;
67442;SDS011;54311;51.726;5.154;2022-11-20T11:04:19;53.08;;;33.53;;
67442;SDS011;54311;51.726;5.154;2022-11-20T11:06:58;51.30;;;34.15;;
67442;SDS011;54311;51.726;5.154;2022-11-20T11:09:44;56.20;;;34.85;;
67442;SDS011;54311;51.726;5.154;2022-11-20T11:12:12;52.33;;;33.08;;
67442;SDS011;54311;51.726;5.154;2022-11-20T11:14:45;50.97;;;33.72;;
67442;SDS011;54311;51.726;5.154;2022-11-20T11:17:45;55.45;;;34.47;;
67442;SDS011;54311;51.726;5.154;2022-11-20T11:20:07;47.25;;;32.53;;
67442;SDS011;54311;51.726;5.154;2022-11-20T11:22:47;50.25;;;32.92;;
67442;SDS011;54311;51.726;5.154;2022-11-20T11:25:21;43.88;;;32.28;;
67442;SDS011;54311;51.726;5.154;2022-11-20T11:27:50;46.65;;;32.50;;
67442;SDS011;54311;51.726;5.154;2022-11-20T11:30:17;47.67;;;33.05;;
67442;SDS011;54311;51.726;5.154;2022-11-20T11:32:44;51.10;;;34.88;;
67442;SDS011;54311;51.726;5.154;2022-11-20T11:37:46;50.90;;;34.40;;
67442;SDS011;54311;51.726;5.154;2022-11-20T11:40:15;45.42;;;32.47;;
67442;SDS011;54311;51.726;5.154;2022-11-20T11:42:43;53.63;;;34.58;;
67442;SDS011;54311;51.726;5.154;2022-11-20T11:45:16;51.63;;;33.17;;
67442;SDS011;54311;51.726;5.154;2022-11-20T11:47:45;54.20;;;32.40;;
67442;SDS011;54311;51.726;5.154;2022-11-20T11:55:24;52.72;;;32.45;;
67442;SDS011;54311;51.726;5.154;2022-11-20T12:01:02;53.00;;;34.00;;
67442;SDS011;54311;51.726;5.154;2022-11-20T12:03:37;54.78;;;34.03;;
67442;SDS011;54311;51.726;5.154;2022-11-20T12:06:05;49.67;;;33.57;;
67442;SDS011;54311;51.726;5.154;2022-11-20T12:08:47;55.50;;;34.90;;
67442;SDS011;54311;51.726;5.154;2022-11-20T12:11:34;55.00;;;34.40;;
67442;SDS011;54311;51.726;5.154;2022-11-20T12:14:16;54.20;;;35.40;;
67442;SDS011;54311;51.726;5.154;2022-11-20T12:16:44;57.22;;;35.17;;
67442;SDS011;54311;51.726;5.154;2022-11-20T12:19:11;58.15;;;36.17;;
67442;SDS011;54311;51.726;5.154;2022-11-20T12:21:44;58.05;;;36.38;;
67442;SDS011;54311;51.726;5.154;2022-11-20T12:26:49;60.08;;;36.75;;
67442;SDS011;54311;51.726;5.154;2022-11-20T12:32:02;64.32;;;38.33;;
67442;SDS011;54311;51.726;5.154;2022-11-20T12:37:49;65.07;;;38.00;;
67442;SDS011;54311;51.726;5.154;2022-11-20T12:40:38;64.45;;;39.63;;
67442;SDS011;54311;51.726;5.154;2022-11-20T12:43:20;64.28;;;39.65;;
67442;SDS011;54311;51.726;5.154;2022-11-20T12:46:49;61.15;;;37.88;;
67442;SDS011;54311;51.726;5.154;2022-11-20T12:49:12;62.65;;;38.03;;
67442;SDS011;54311;51.726;5.154;2022-11-20T12:52:05;68.03;;;39.05;;
67442;SDS011;54311;51.726;5.154;2022-11-20T13:00:23;60.35;;;37.30;;
67442;SDS011;54311;51.726;5.154;2022-11-20T13:08:25;63.13;;;39.28;;
67442;SDS011;54311;51.726;5.154;2022-11-20T13:10:57;63.22;;;38.78;;
67442;SDS011;54311;51.726;5.154;2022-11-20T13:18:41;69.38;;;37.97;;
67442;SDS011;54311;51.726;5.154;2022-11-20T13:21:15;68.85;;;40.03;;
67442;SDS011;54311;51.726;5.154;2022-11-20T13:23:45;61.80;;;38.75;;
67442;SDS011;54311;51.726;5.154;2022-11-20T13:26:15;69.68;;;40.13;;
67442;SDS011;54311;51.726;5.154;2022-11-20T13:28:42;73.82;;;40.00;;
67442;SDS011;54311;51.726;5.154;2022-11-20T13:31:24;72.65;;;39.58;;
67442;SDS011;54311;51.726;5.154;2022-11-20T13:33:56;74.45;;;43.75;;
67442;SDS011;54311;51.726;5.154;2022-11-20T13:36:26;72.72;;;40.45;;
67442;SDS011;54311;51.726;5.154;2022-11-20T13:38:53;71.80;;;40.85;;
67442;SDS011;54311;51.726;5.154;2022-11-20T13:41:37;69.93;;;39.35;;
67442;SDS011;54311;51.726;5.154;2022-11-20T13:44:13;65.85;;;37.95;;
67442;SDS011;54311;51.726;5.154;2022-11-20T13:46:44;71.85;;;39.85;;
67442;SDS011;54311;51.726;5.154;2022-11-20T13:49:14;71.50;;;41.35;;
67442;SDS011;54311;51.726;5.154;2022-11-20T13:51:44;77.47;;;40.38;;
67442;SDS011;54311;51.726;5.154;2022-11-20T13:57:13;66.95;;;40.15;;
67442;SDS011;54311;51.726;5.154;2022-11-20T14:02:35;68.25;;;39.10;;
67442;SDS011;54311;51.726;5.154;2022-11-20T14:05:00;70.07;;;39.72;;
67442;SDS011;54311;51.726;5.154;2022-11-20T14:08:00;73.18;;;40.90;;
67442;SDS011;54311;51.726;5.154;2022-11-20T14:10:20;67.45;;;38.88;;
67442;SDS011;54311;51.726;5.154;2022-11-20T14:12:50;74.97;;;39.30;;
67442;SDS011;54311;51.726;5.154;2022-11-20T14:15:32;70.10;;;40.45;;
67442;SDS011;54311;51.726;5.154;2022-11-20T14:17:58;70.97;;;38.88;;
67442;SDS011;54311;51.726;5.154;2022-11-20T14:22:54;67.88;;;41.03;;
67442;SDS011;54311;51.726;5.154;2022-11-20T14:27:55;75.43;;;41.60;;
67442;SDS011;54311;51.726;5.154;2022-11-20T14:30:23;71.95;;;40.03;;
67442;SDS011;54311;51.726;5.154;2022-11-20T14:32:49;77.35;;;42.05;;
67442;SDS011;54311;51.726;5.154;2022-11-20T14:38:00;79.22;;;41.60;;
67442;SDS011;54311;51.726;5.154;2022-11-20T14:43:00;74.18;;;41.22;;
67442;SDS011;54311;51.726;5.154;2022-11-20T14:45:26;74.53;;;42.42;;
67442;SDS011;54311;51.726;5.154;2022-11-20T14:47:52;73.70;;;40.85;;
67442;SDS011;54311;51.726;5.154;2022-11-20T14:50:20;72.15;;;39.95;;
67442;SDS011;54311;51.726;5.154;2022-11-20T14:52:55;76.18;;;40.42;;
67442;SDS011;54311;51.726;5.154;2022-11-20T14:55:39;70.05;;;39.85;;
67442;SDS011;54311;51.726;5.154;2022-11-20T14:58:18;71.75;;;40.15;;
67442;SDS011;54311;51.726;5.154;2022-11-20T15:00:53;76.80;;;41.38;;
67442;SDS011;54311;51.726;5.154;2022-11-20T15:03:19;73.03;;;39.17;;
67442;SDS011;54311;51.726;5.154;2022-11-20T15:05:48;69.63;;;37.17;;
67442;SDS011;54311;51.726;5.154;2022-11-20T15:08:15;68.72;;;37.58;;
67442;SDS011;54311;51.726;5.154;2022-11-20T15:10:48;66.22;;;37.97;;
67442;SDS011;54311;51.726;5.154;2022-11-20T15:13:25;63.38;;;39.08;;
67442;SDS011;54311;51.726;5.154;2022-11-20T15:15:58;64.32;;;36.65;;
67442;SDS011;54311;51.726;5.154;2022-11-20T15:18:33;73.25;;;39.63;;
67442;SDS011;54311;51.726;5.154;2022-11-20T15:21:04;70.60;;;38.60;;
67442;SDS011;54311;51.726;5.154;2022-11-20T15:23:34;70.13;;;39.65;;
67442;SDS011;54311;51.726;5.154;2022-11-20T15:26:00;78.00;;;40.63;;
67442;SDS011;54311;51.726;5.154;2022-11-20T15:30:58;74.70;;;41.17;;
67442;SDS011;54311;51.726;5.154;2022-11-20T15:33:23;73.10;;;41.22;;
67442;SDS011;54311;51.726;5.154;2022-11-20T15:35:49;75.75;;;41.13;;
67442;SDS011;54311;51.726;5.154;2022-11-20T15:38:14;71.45;;;41.10;;
67442;SDS011;54311;51.726;5.154;2022-11-20T15:40:39;70.60;;;41.40;;
67442;SDS011;54311;51.726;5.154;2022-11-20T15:43:05;72.47;;;38.83;;
67442;SDS011;54311;51.726;5.154;2022-11-20T15:45:39;71.65;;;40.13;;
67442;SDS011;54311;51.726;5.154;2022-11-20T15:48:11;73.18;;;40.72;;
67442;SDS011;54311;51.726;5.154;2022-11-20T15:50:40;75.93;;;41.17;;
67442;SDS011;54311;51.726;5.154;2022-11-20T15:53:13;78.95;;;41.42;;
67442;SDS011;54311;51.726;5.154;2022-11-20T15:55:38;69.25;;;37.90;;
67442;SDS011;54311;51.726;5.154;2022-11-20T15:58:03;102.32;;;61.17;;
67442;SDS011;54311;51.726;5.154;2022-11-20T16:00:29;70.03;;;40.88;;
67442;SDS011;54311;51.726;5.154;2022-11-20T16:02:54;65.82;;;40.90;;
67442;SDS011;54311;51.726;5.154;2022-11-20T16:05:19;74.18;;;38.15;;
67442;SDS011;54311;51.726;5.154;2022-11-20T16:07:47;70.63;;;37.45;;